sensor_id;sensor_type;location;lat;lon;timestamp;P1;durP1;ratioP1;P2;durP2;ratioP2
5569;SDS011;2808;51.240;6.794;2023-11-19T00:00:56;8.77;;;4.00;;
5569;SDS011;2808;51.240;6.794;2023-11-19T00:03:42;10.10;;;3.67;;
5569;SDS011;2808;51.240;6.794;2023-11-19T00:06:18;8.90;;;3.40;;
5569;SDS011;2808;51.240;6.794;2023-11-19T00:08:54;6.87;;;3.70;;
5569;SDS011;2808;51.240;6.794;2023-11-19T00:11:24;9.27;;;4.20;;
5569;SDS011;2808;51.240;6.794;2023-11-19T00:13:53;7.90;;;3.67;;
5569;SDS011;2808;51.240;6.794;2023-11-19T00:16:25;7.07;;;3.53;;
5569;SDS011;2808;51.240;6.794;2023-11-19T00:18:56;6.67;;;3.73;;
5569;SDS011;2808;51.240;6.794;2023-11-19T00:21:36;6.00;;;3.57;;
5569;SDS011;2808;51.240;6.794;2023-11-19T00:24:07;6.60;;;3.70;;
5569;SDS011;2808;51.240;6.794;2023-11-19T00:26:39;8.30;;;4.20;;
5569;SDS011;2808;51.240;6.794;2023-11-19T00:29:21;9.43;;;3.73;;
5569;SDS011;2808;51.240;6.794;2023-11-19T00:31:50;8.03;;;3.60;;
5569;SDS011;2808;51.240;6.794;2023-11-19T00:34:27;5.77;;;3.10;;
5569;SDS011;2808;51.240;6.794;2023-11-19T00:37:06;9.10;;;3.77;;
5569;SDS011;2808;51.240;6.794;2023-11-19T00:39:42;6.77;;;3.30;;
5569;SDS011;2808;51.240;6.794;2023-11-19T00:42:23;7.07;;;3.63;;
5569;SDS011;2808;51.240;6.794;2023-11-19T00:44:52;6.00;;;3.17;;
5569;SDS011;2808;51.240;6.794;2023-11-19T00:47:35;6.77;;;3.57;;
5569;SDS011;2808;51.240;6.794;2023-11-19T00:50:06;5.20;;;3.07;;
5569;SDS011;2808;51.240;6.794;2023-11-19T00:52:40;6.23;;;3.20;;
5569;SDS011;2808;51.240;6.794;2023-11-19T00:55:14;5.03;;;3.07;;
5569;SDS011;2808;51.240;6.794;2023-11-19T00:57:48;6.00;;;2.70;;
5569;SDS011;2808;51.240;6.794;2023-11-19T01:00:27;10.37;;;2.63;;
5569;SDS011;2808;51.240;6.794;2023-11-19T01:03:07;3.47;;;1.90;;
5569;SDS011;2808;51.240;6.794;2023-11-19T01:05:38;3.47;;;1.90;;
5569;SDS011;2808;51.240;6.794;2023-11-19T01:08:14;4.10;;;1.97;;
5569;SDS011;2808;51.240;6.794;2023-11-19T01:10:49;3.73;;;2.10;;
5569;SDS011;2808;51.240;6.794;2023-11-19T01:13:37;3.50;;;1.97;;
5569;SDS011;2808;51.240;6.794;2023-11-19T01:16:21;4.23;;;1.80;;
5569;SDS011;2808;51.240;6.794;2023-11-19T01:18:55;5.27;;;1.80;;
5569;SDS011;2808;51.240;6.794;2023-11-19T01:21:30;4.30;;;1.73;;
5569;SDS011;2808;51.240;6.794;2023-11-19T01:24:11;3.37;;;1.60;;
5569;SDS011;2808;51.240;6.794;2023-11-19T01:26:41;3.50;;;1.90;;
5569;SDS011;2808;51.240;6.794;2023-11-19T01:29:22;2.83;;;1.43;;
5569;SDS011;2808;51.240;6.794;2023-11-19T01:31:59;3.10;;;1.30;;
5569;SDS011;2808;51.240;6.794;2023-11-19T01:34:38;3.77;;;1.50;;
5569;SDS011;2808;51.240;6.794;2023-11-19T01:37:09;5.47;;;1.40;;
5569;SDS011;2808;51.240;6.794;2023-11-19T01:39:40;3.20;;;1.40;;
5569;SDS011;2808;51.240;6.794;2023-11-19T01:42:25;3.53;;;1.60;;
5569;SDS011;2808;51.240;6.794;2023-11-19T01:45:00;3.67;;;1.50;;
5569;SDS011;2808;51.240;6.794;2023-11-19T01:47:33;3.50;;;1.33;;
5569;SDS011;2808;51.240;6.794;2023-11-19T01:50:25;3.27;;;1.10;;
5569;SDS011;2808;51.240;6.794;2023-11-19T01:52:57;8.13;;;1.40;;
5569;SDS011;2808;51.240;6.794;2023-11-19T01:55:28;5.60;;;1.50;;
5569;SDS011;2808;51.240;6.794;2023-11-19T01:58:06;5.53;;;1.40;;
5569;SDS011;2808;51.240;6.794;2023-11-19T02:00:50;3.63;;;1.50;;
5569;SDS011;2808;51.240;6.794;2023-11-19T02:03:24;5.93;;;1.70;;
5569;SDS011;2808;51.240;6.794;2023-11-19T02:05:58;4.70;;;1.40;;
5569;SDS011;2808;51.240;6.794;2023-11-19T02:08:27;3.17;;;1.30;;
5569;SDS011;2808;51.240;6.794;2023-11-19T02:11:05;9.10;;;1.70;;
5569;SDS011;2808;51.240;6.794;2023-11-19T02:13:42;4.57;;;1.40;;
5569;SDS011;2808;51.240;6.794;2023-11-19T02:16:16;4.50;;;1.50;;
5569;SDS011;2808;51.240;6.794;2023-11-19T02:18:55;5.03;;;1.67;;
5569;SDS011;2808;51.240;6.794;2023-11-19T02:21:39;4.23;;;1.53;;
5569;SDS011;2808;51.240;6.794;2023-11-19T02:24:19;6.70;;;2.00;;
5569;SDS011;2808;51.240;6.794;2023-11-19T02:26:59;3.80;;;1.60;;
5569;SDS011;2808;51.240;6.794;2023-11-19T02:29:43;5.73;;;1.83;;
5569;SDS011;2808;51.240;6.794;2023-11-19T02:32:18;12.43;;;2.17;;
5569;SDS011;2808;51.240;6.794;2023-11-19T02:34:54;7.47;;;2.37;;
5569;SDS011;2808;51.240;6.794;2023-11-19T02:37:43;10.60;;;2.57;;
5569;SDS011;2808;51.240;6.794;2023-11-19T02:40:20;8.90;;;2.27;;
5569;SDS011;2808;51.240;6.794;2023-11-19T02:42:57;12.47;;;2.60;;
5569;SDS011;2808;51.240;6.794;2023-11-19T02:45:47;9.50;;;2.90;;
5569;SDS011;2808;51.240;6.794;2023-11-19T02:48:31;9.30;;;2.50;;
5569;SDS011;2808;51.240;6.794;2023-11-19T02:51:00;10.93;;;2.60;;
5569;SDS011;2808;51.240;6.794;2023-11-19T02:53:37;14.73;;;2.27;;
5569;SDS011;2808;51.240;6.794;2023-11-19T02:56:09;13.97;;;2.90;;
5569;SDS011;2808;51.240;6.794;2023-11-19T02:58:47;8.03;;;2.60;;
5569;SDS011;2808;51.240;6.794;2023-11-19T03:01:23;12.97;;;3.00;;
5569;SDS011;2808;51.240;6.794;2023-11-19T03:04:01;11.67;;;3.00;;
5569;SDS011;2808;51.240;6.794;2023-11-19T03:06:37;17.90;;;3.47;;
5569;SDS011;2808;51.240;6.794;2023-11-19T03:09:27;9.87;;;2.97;;
5569;SDS011;2808;51.240;6.794;2023-11-19T03:12:04;15.60;;;3.07;;
5569;SDS011;2808;51.240;6.794;2023-11-19T03:14:33;20.33;;;3.47;;
5569;SDS011;2808;51.240;6.794;2023-11-19T03:17:05;9.17;;;2.97;;
5569;SDS011;2808;51.240;6.794;2023-11-19T03:19:41;26.80;;;3.93;;
5569;SDS011;2808;51.240;6.794;2023-11-19T03:22:16;9.87;;;2.80;;
5569;SDS011;2808;51.240;6.794;2023-11-19T03:24:56;14.20;;;2.73;;
5569;SDS011;2808;51.240;6.794;2023-11-19T03:27:46;15.87;;;3.10;;
5569;SDS011;2808;51.240;6.794;2023-11-19T03:30:32;22.03;;;3.17;;
5569;SDS011;2808;51.240;6.794;2023-11-19T03:33:08;22.20;;;3.97;;
5569;SDS011;2808;51.240;6.794;2023-11-19T03:35:41;13.53;;;3.00;;
5569;SDS011;2808;51.240;6.794;2023-11-19T03:38:27;20.40;;;2.87;;
5569;SDS011;2808;51.240;6.794;2023-11-19T03:41:10;17.73;;;3.00;;
5569;SDS011;2808;51.240;6.794;2023-11-19T03:43:44;14.77;;;3.00;;
5569;SDS011;2808;51.240;6.794;2023-11-19T03:46:22;17.60;;;4.07;;
5569;SDS011;2808;51.240;6.794;2023-11-19T03:48:56;24.53;;;3.27;;
5569;SDS011;2808;51.240;6.794;2023-11-19T03:51:40;29.10;;;3.70;;
5569;SDS011;2808;51.240;6.794;2023-11-19T03:54:18;17.47;;;3.63;;
5569;SDS011;2808;51.240;6.794;2023-11-19T03:56:50;15.90;;;3.20;;
5569;SDS011;2808;51.240;6.794;2023-11-19T03:59:42;30.87;;;4.93;;
5569;SDS011;2808;51.240;6.794;2023-11-19T04:02:32;19.13;;;2.93;;
5569;SDS011;2808;51.240;6.794;2023-11-19T04:05:10;26.77;;;3.50;;
5569;SDS011;2808;51.240;6.794;2023-11-19T04:07:51;21.60;;;2.93;;
5569;SDS011;2808;51.240;6.794;2023-11-19T04:10:27;24.67;;;4.70;;
5569;SDS011;2808;51.240;6.794;2023-11-19T04:12:58;15.97;;;2.93;;
5569;SDS011;2808;51.240;6.794;2023-11-19T04:15:30;18.70;;;2.57;;
5569;SDS011;2808;51.240;6.794;2023-11-19T04:18:01;23.07;;;4.40;;
5569;SDS011;2808;51.240;6.794;2023-11-19T04:20:38;25.00;;;3.83;;
5569;SDS011;2808;51.240;6.794;2023-11-19T04:23:13;30.03;;;3.30;;
5569;SDS011;2808;51.240;6.794;2023-11-19T04:25:53;29.13;;;3.57;;
5569;SDS011;2808;51.240;6.794;2023-11-19T04:28:35;29.33;;;3.63;;
5569;SDS011;2808;51.240;6.794;2023-11-19T04:31:10;16.87;;;3.40;;
5569;SDS011;2808;51.240;6.794;2023-11-19T04:34:07;31.67;;;4.07;;
5569;SDS011;2808;51.240;6.794;2023-11-19T04:36:53;29.27;;;5.87;;
5569;SDS011;2808;51.240;6.794;2023-11-19T04:39:32;23.07;;;3.60;;
5569;SDS011;2808;51.240;6.794;2023-11-19T04:42:13;30.87;;;4.53;;
5569;SDS011;2808;51.240;6.794;2023-11-19T04:44:49;31.73;;;4.27;;
5569;SDS011;2808;51.240;6.794;2023-11-19T04:47:48;25.30;;;3.27;;
5569;SDS011;2808;51.240;6.794;2023-11-19T04:50:32;22.33;;;3.77;;
5569;SDS011;2808;51.240;6.794;2023-11-19T04:53:06;23.83;;;4.33;;
5569;SDS011;2808;51.240;6.794;2023-11-19T04:55:39;27.67;;;3.40;;
5569;SDS011;2808;51.240;6.794;2023-11-19T04:58:28;27.00;;;3.40;;
5569;SDS011;2808;51.240;6.794;2023-11-19T05:01:15;39.67;;;3.50;;
5569;SDS011;2808;51.240;6.794;2023-11-19T05:03:43;17.53;;;3.17;;
5569;SDS011;2808;51.240;6.794;2023-11-19T05:06:28;22.17;;;3.53;;
5569;SDS011;2808;51.240;6.794;2023-11-19T05:09:06;27.50;;;3.57;;
5569;SDS011;2808;51.240;6.794;2023-11-19T05:11:53;28.50;;;5.17;;
5569;SDS011;2808;51.240;6.794;2023-11-19T05:14:28;24.30;;;3.67;;
5569;SDS011;2808;51.240;6.794;2023-11-19T05:17:04;34.60;;;4.97;;
5569;SDS011;2808;51.240;6.794;2023-11-19T05:19:48;27.87;;;3.63;;
5569;SDS011;2808;51.240;6.794;2023-11-19T05:22:39;25.13;;;4.37;;
5569;SDS011;2808;51.240;6.794;2023-11-19T05:25:15;36.40;;;6.23;;
5569;SDS011;2808;51.240;6.794;2023-11-19T05:27:57;25.63;;;4.00;;
5569;SDS011;2808;51.240;6.794;2023-11-19T05:30:45;25.00;;;4.63;;
5569;SDS011;2808;51.240;6.794;2023-11-19T05:33:21;26.77;;;4.57;;
5569;SDS011;2808;51.240;6.794;2023-11-19T05:36:05;21.93;;;3.40;;
5569;SDS011;2808;51.240;6.794;2023-11-19T05:41:44;39.03;;;4.77;;
5569;SDS011;2808;51.240;6.794;2023-11-19T05:44:31;43.10;;;6.50;;
5569;SDS011;2808;51.240;6.794;2023-11-19T05:46:59;23.30;;;3.50;;
5569;SDS011;2808;51.240;6.794;2023-11-19T05:49:51;24.93;;;3.93;;
5569;SDS011;2808;51.240;6.794;2023-11-19T05:52:25;26.33;;;4.23;;
5569;SDS011;2808;51.240;6.794;2023-11-19T05:55:10;26.40;;;4.50;;
5569;SDS011;2808;51.240;6.794;2023-11-19T05:57:56;37.47;;;4.97;;
5569;SDS011;2808;51.240;6.794;2023-11-19T06:00:43;30.23;;;4.73;;
5569;SDS011;2808;51.240;6.794;2023-11-19T06:03:18;27.93;;;4.43;;
5569;SDS011;2808;51.240;6.794;2023-11-19T06:05:57;21.17;;;3.23;;
5569;SDS011;2808;51.240;6.794;2023-11-19T06:08:30;21.33;;;3.27;;
5569;SDS011;2808;51.240;6.794;2023-11-19T06:11:10;20.00;;;3.77;;
5569;SDS011;2808;51.240;6.794;2023-11-19T06:19:44;17.97;;;3.33;;
5569;SDS011;2808;51.240;6.794;2023-11-19T06:22:16;32.27;;;4.97;;
5569;SDS011;2808;51.240;6.794;2023-11-19T06:25:14;24.57;;;3.60;;
5569;SDS011;2808;51.240;6.794;2023-11-19T06:28:04;23.90;;;3.90;;
5569;SDS011;2808;51.240;6.794;2023-11-19T06:30:43;22.70;;;3.60;;
5569;SDS011;2808;51.240;6.794;2023-11-19T06:33:20;33.93;;;3.87;;
5569;SDS011;2808;51.240;6.794;2023-11-19T06:35:55;24.87;;;3.20;;
5569;SDS011;2808;51.240;6.794;2023-11-19T06:38:37;37.17;;;3.67;;
5569;SDS011;2808;51.240;6.794;2023-11-19T06:41:11;28.30;;;4.00;;
5569;SDS011;2808;51.240;6.794;2023-11-19T06:43:50;32.30;;;4.03;;
5569;SDS011;2808;51.240;6.794;2023-11-19T06:46:20;43.23;;;4.80;;
5569;SDS011;2808;51.240;6.794;2023-11-19T06:48:59;31.00;;;3.63;;
5569;SDS011;2808;51.240;6.794;2023-11-19T06:51:29;41.80;;;5.93;;
5569;SDS011;2808;51.240;6.794;2023-11-19T06:54:05;29.13;;;3.80;;
5569;SDS011;2808;51.240;6.794;2023-11-19T06:56:45;26.70;;;4.77;;
5569;SDS011;2808;51.240;6.794;2023-11-19T06:59:36;30.40;;;4.10;;
5569;SDS011;2808;51.240;6.794;2023-11-19T07:02:18;31.80;;;4.93;;
5569;SDS011;2808;51.240;6.794;2023-11-19T07:05:04;28.10;;;4.07;;
5569;SDS011;2808;51.240;6.794;2023-11-19T07:07:50;29.70;;;3.53;;
5569;SDS011;2808;51.240;6.794;2023-11-19T07:10:31;30.03;;;4.40;;
5569;SDS011;2808;51.240;6.794;2023-11-19T07:13:08;30.07;;;4.60;;
5569;SDS011;2808;51.240;6.794;2023-11-19T07:16:07;33.63;;;4.47;;
5569;SDS011;2808;51.240;6.794;2023-11-19T07:18:58;27.70;;;4.27;;
5569;SDS011;2808;51.240;6.794;2023-11-19T07:21:39;19.40;;;3.60;;
5569;SDS011;2808;51.240;6.794;2023-11-19T07:24:29;30.13;;;3.93;;
5569;SDS011;2808;51.240;6.794;2023-11-19T07:27:14;26.27;;;4.63;;
5569;SDS011;2808;51.240;6.794;2023-11-19T07:29:58;22.10;;;3.93;;
5569;SDS011;2808;51.240;6.794;2023-11-19T07:32:51;30.87;;;3.70;;
5569;SDS011;2808;51.240;6.794;2023-11-19T07:38:25;47.97;;;4.87;;
5569;SDS011;2808;51.240;6.794;2023-11-19T07:43:58;34.20;;;3.80;;
5569;SDS011;2808;51.240;6.794;2023-11-19T07:46:45;38.23;;;5.93;;
5569;SDS011;2808;51.240;6.794;2023-11-19T07:49:25;39.30;;;4.53;;
5569;SDS011;2808;51.240;6.794;2023-11-19T07:52:19;27.13;;;4.07;;
5569;SDS011;2808;51.240;6.794;2023-11-19T07:54:56;25.00;;;3.70;;
5569;SDS011;2808;51.240;6.794;2023-11-19T07:57:38;30.20;;;4.40;;
5569;SDS011;2808;51.240;6.794;2023-11-19T08:00:36;43.53;;;4.40;;
5569;SDS011;2808;51.240;6.794;2023-11-19T08:03:17;25.97;;;4.37;;
5569;SDS011;2808;51.240;6.794;2023-11-19T08:05:55;44.23;;;6.33;;
5569;SDS011;2808;51.240;6.794;2023-11-19T08:08:35;29.87;;;5.00;;
5569;SDS011;2808;51.240;6.794;2023-11-19T08:11:06;28.47;;;4.50;;
5569;SDS011;2808;51.240;6.794;2023-11-19T08:13:36;33.10;;;4.50;;
5569;SDS011;2808;51.240;6.794;2023-11-19T08:16:07;27.67;;;4.33;;
5569;SDS011;2808;51.240;6.794;2023-11-19T08:18:41;36.03;;;4.70;;
5569;SDS011;2808;51.240;6.794;2023-11-19T08:21:12;27.90;;;4.93;;
5569;SDS011;2808;51.240;6.794;2023-11-19T08:23:54;34.93;;;3.97;;
5569;SDS011;2808;51.240;6.794;2023-11-19T08:26:27;28.87;;;4.20;;
5569;SDS011;2808;51.240;6.794;2023-11-19T08:29:00;23.97;;;3.80;;
5569;SDS011;2808;51.240;6.794;2023-11-19T08:31:28;29.63;;;4.80;;
5569;SDS011;2808;51.240;6.794;2023-11-19T08:33:58;27.43;;;4.23;;
5569;SDS011;2808;51.240;6.794;2023-11-19T08:36:29;28.00;;;4.17;;
5569;SDS011;2808;51.240;6.794;2023-11-19T08:39:02;21.33;;;3.73;;
5569;SDS011;2808;51.240;6.794;2023-11-19T08:41:35;24.47;;;3.70;;
5569;SDS011;2808;51.240;6.794;2023-11-19T08:44:07;32.97;;;5.70;;
5569;SDS011;2808;51.240;6.794;2023-11-19T08:46:35;29.20;;;4.10;;
5569;SDS011;2808;51.240;6.794;2023-11-19T08:49:04;21.10;;;3.33;;
5569;SDS011;2808;51.240;6.794;2023-11-19T08:51:35;30.43;;;4.53;;
5569;SDS011;2808;51.240;6.794;2023-11-19T08:54:10;34.63;;;4.80;;
5569;SDS011;2808;51.240;6.794;2023-11-19T08:56:47;21.37;;;4.17;;
5569;SDS011;2808;51.240;6.794;2023-11-19T08:59:15;32.63;;;5.40;;
5569;SDS011;2808;51.240;6.794;2023-11-19T09:01:47;26.07;;;4.63;;
5569;SDS011;2808;51.240;6.794;2023-11-19T09:04:22;27.73;;;4.03;;
5569;SDS011;2808;51.240;6.794;2023-11-19T09:06:57;31.77;;;5.63;;
5569;SDS011;2808;51.240;6.794;2023-11-19T09:09:31;29.03;;;4.47;;
5569;SDS011;2808;51.240;6.794;2023-11-19T09:12:03;36.57;;;4.87;;
5569;SDS011;2808;51.240;6.794;2023-11-19T09:14:39;37.63;;;5.87;;
5569;SDS011;2808;51.240;6.794;2023-11-19T09:17:28;25.50;;;4.07;;
5569;SDS011;2808;51.240;6.794;2023-11-19T09:20:21;42.50;;;4.47;;
5569;SDS011;2808;51.240;6.794;2023-11-19T09:23:11;22.17;;;3.90;;
5569;SDS011;2808;51.240;6.794;2023-11-19T09:25:51;31.43;;;4.30;;
5569;SDS011;2808;51.240;6.794;2023-11-19T09:28:25;31.57;;;4.63;;
5569;SDS011;2808;51.240;6.794;2023-11-19T09:31:12;30.10;;;4.43;;
5569;SDS011;2808;51.240;6.794;2023-11-19T09:33:47;38.60;;;6.60;;
5569;SDS011;2808;51.240;6.794;2023-11-19T09:36:33;34.47;;;4.97;;
5569;SDS011;2808;51.240;6.794;2023-11-19T09:39:12;24.13;;;4.83;;
5569;SDS011;2808;51.240;6.794;2023-11-19T09:41:53;26.93;;;4.37;;
5569;SDS011;2808;51.240;6.794;2023-11-19T09:44:26;29.63;;;4.13;;
5569;SDS011;2808;51.240;6.794;2023-11-19T09:46:55;25.50;;;4.20;;
5569;SDS011;2808;51.240;6.794;2023-11-19T09:49:31;37.47;;;6.00;;
5569;SDS011;2808;51.240;6.794;2023-11-19T09:52:06;31.33;;;4.40;;
5569;SDS011;2808;51.240;6.794;2023-11-19T09:54:41;26.23;;;4.50;;
5569;SDS011;2808;51.240;6.794;2023-11-19T09:57:10;41.90;;;5.60;;
5569;SDS011;2808;51.240;6.794;2023-11-19T09:59:45;36.10;;;4.60;;
5569;SDS011;2808;51.240;6.794;2023-11-19T10:02:16;33.20;;;4.60;;
5569;SDS011;2808;51.240;6.794;2023-11-19T10:04:57;29.43;;;4.67;;
5569;SDS011;2808;51.240;6.794;2023-11-19T10:07:30;26.90;;;5.17;;
5569;SDS011;2808;51.240;6.794;2023-11-19T10:10:12;26.27;;;5.07;;
5569;SDS011;2808;51.240;6.794;2023-11-19T10:12:46;28.27;;;4.80;;
5569;SDS011;2808;51.240;6.794;2023-11-19T10:15:17;37.60;;;5.27;;
5569;SDS011;2808;51.240;6.794;2023-11-19T10:17:55;29.43;;;4.83;;
5569;SDS011;2808;51.240;6.794;2023-11-19T10:20:40;26.97;;;5.17;;
5569;SDS011;2808;51.240;6.794;2023-11-19T10:23:22;23.27;;;3.90;;
5569;SDS011;2808;51.240;6.794;2023-11-19T10:25:55;38.97;;;4.40;;
5569;SDS011;2808;51.240;6.794;2023-11-19T10:28:45;29.07;;;3.70;;
5569;SDS011;2808;51.240;6.794;2023-11-19T10:31:17;37.67;;;5.33;;
5569;SDS011;2808;51.240;6.794;2023-11-19T10:33:55;28.40;;;3.97;;
5569;SDS011;2808;51.240;6.794;2023-11-19T10:36:28;32.40;;;5.23;;
5569;SDS011;2808;51.240;6.794;2023-11-19T10:39:09;34.43;;;5.07;;
5569;SDS011;2808;51.240;6.794;2023-11-19T10:41:41;23.70;;;4.07;;
5569;SDS011;2808;51.240;6.794;2023-11-19T10:44:14;35.37;;;3.87;;
5569;SDS011;2808;51.240;6.794;2023-11-19T10:47:05;25.97;;;4.13;;
5569;SDS011;2808;51.240;6.794;2023-11-19T10:49:42;28.40;;;4.73;;
5569;SDS011;2808;51.240;6.794;2023-11-19T10:52:11;22.83;;;3.80;;
5569;SDS011;2808;51.240;6.794;2023-11-19T10:54:48;35.43;;;8.17;;
5569;SDS011;2808;51.240;6.794;2023-11-19T10:57:21;38.50;;;6.00;;
5569;SDS011;2808;51.240;6.794;2023-11-19T10:59:55;37.40;;;5.87;;
5569;SDS011;2808;51.240;6.794;2023-11-19T11:02:35;23.20;;;3.53;;
5569;SDS011;2808;51.240;6.794;2023-11-19T11:05:11;29.50;;;4.27;;
5569;SDS011;2808;51.240;6.794;2023-11-19T11:07:45;34.00;;;4.70;;
5569;SDS011;2808;51.240;6.794;2023-11-19T11:10:16;29.00;;;5.10;;
5569;SDS011;2808;51.240;6.794;2023-11-19T11:12:56;34.27;;;4.87;;
5569;SDS011;2808;51.240;6.794;2023-11-19T11:15:33;25.23;;;4.17;;
5569;SDS011;2808;51.240;6.794;2023-11-19T11:18:02;40.90;;;5.60;;
5569;SDS011;2808;51.240;6.794;2023-11-19T11:20:35;28.27;;;4.00;;
5569;SDS011;2808;51.240;6.794;2023-11-19T11:23:12;26.23;;;4.10;;
5569;SDS011;2808;51.240;6.794;2023-11-19T11:26:09;22.50;;;3.83;;
5569;SDS011;2808;51.240;6.794;2023-11-19T11:29:01;22.03;;;3.97;;
5569;SDS011;2808;51.240;6.794;2023-11-19T11:31:39;20.63;;;3.67;;
5569;SDS011;2808;51.240;6.794;2023-11-19T11:37:30;28.40;;;4.20;;
5569;SDS011;2808;51.240;6.794;2023-11-19T11:40:14;31.67;;;4.70;;
5569;SDS011;2808;51.240;6.794;2023-11-19T11:42:45;21.60;;;3.73;;
5569;SDS011;2808;51.240;6.794;2023-11-19T11:45:19;19.63;;;3.47;;
5569;SDS011;2808;51.240;6.794;2023-11-19T11:50:52;26.83;;;4.17;;
5569;SDS011;2808;51.240;6.794;2023-11-19T11:53:22;22.43;;;3.77;;
5569;SDS011;2808;51.240;6.794;2023-11-19T11:55:54;29.40;;;3.53;;
5569;SDS011;2808;51.240;6.794;2023-11-19T11:58:28;24.43;;;3.50;;
5569;SDS011;2808;51.240;6.794;2023-11-19T12:01:06;22.10;;;4.33;;
5569;SDS011;2808;51.240;6.794;2023-11-19T12:03:37;23.33;;;3.80;;
5569;SDS011;2808;51.240;6.794;2023-11-19T12:06:09;30.13;;;4.33;;
5569;SDS011;2808;51.240;6.794;2023-11-19T12:08:40;18.67;;;3.83;;
5569;SDS011;2808;51.240;6.794;2023-11-19T12:11:10;22.40;;;4.37;;
5569;SDS011;2808;51.240;6.794;2023-11-19T12:13:52;28.07;;;4.10;;
5569;SDS011;2808;51.240;6.794;2023-11-19T12:16:24;21.87;;;3.93;;
5569;SDS011;2808;51.240;6.794;2023-11-19T12:18:56;18.30;;;3.30;;
5569;SDS011;2808;51.240;6.794;2023-11-19T12:21:30;22.67;;;3.37;;
5569;SDS011;2808;51.240;6.794;2023-11-19T12:24:03;21.83;;;4.10;;
5569;SDS011;2808;51.240;6.794;2023-11-19T12:26:41;23.70;;;3.63;;
5569;SDS011;2808;51.240;6.794;2023-11-19T12:29:13;22.07;;;3.93;;
5569;SDS011;2808;51.240;6.794;2023-11-19T12:31:54;26.07;;;4.80;;
5569;SDS011;2808;51.240;6.794;2023-11-19T12:34:23;17.40;;;3.10;;
5569;SDS011;2808;51.240;6.794;2023-11-19T12:36:54;25.80;;;3.47;;
5569;SDS011;2808;51.240;6.794;2023-11-19T12:39:23;25.07;;;3.70;;
5569;SDS011;2808;51.240;6.794;2023-11-19T12:41:53;21.23;;;3.60;;
5569;SDS011;2808;51.240;6.794;2023-11-19T12:44:21;32.00;;;4.10;;
5569;SDS011;2808;51.240;6.794;2023-11-19T12:47:01;24.10;;;3.73;;
5569;SDS011;2808;51.240;6.794;2023-11-19T12:49:33;22.47;;;3.57;;
5569;SDS011;2808;51.240;6.794;2023-11-19T12:52:11;15.37;;;2.93;;
5569;SDS011;2808;51.240;6.794;2023-11-19T12:54:42;26.03;;;5.50;;
5569;SDS011;2808;51.240;6.794;2023-11-19T12:57:12;16.53;;;3.30;;
5569;SDS011;2808;51.240;6.794;2023-11-19T12:59:40;13.20;;;3.33;;
5569;SDS011;2808;51.240;6.794;2023-11-19T13:02:14;23.27;;;3.73;;
5569;SDS011;2808;51.240;6.794;2023-11-19T13:05:27;20.37;;;3.47;;
5569;SDS011;2808;51.240;6.794;2023-11-19T13:08:03;30.50;;;4.00;;
5569;SDS011;2808;51.240;6.794;2023-11-19T13:10:49;24.57;;;4.53;;
5569;SDS011;2808;51.240;6.794;2023-11-19T13:13:25;29.67;;;3.40;;
5569;SDS011;2808;51.240;6.794;2023-11-19T13:15:52;33.07;;;4.67;;
5569;SDS011;2808;51.240;6.794;2023-11-19T13:18:34;29.67;;;4.63;;
5569;SDS011;2808;51.240;6.794;2023-11-19T13:21:05;18.40;;;4.30;;
5569;SDS011;2808;51.240;6.794;2023-11-19T13:23:38;20.20;;;3.57;;
5569;SDS011;2808;51.240;6.794;2023-11-19T13:26:14;29.17;;;5.20;;
5569;SDS011;2808;51.240;6.794;2023-11-19T13:28:46;22.30;;;4.30;;
5569;SDS011;2808;51.240;6.794;2023-11-19T13:31:14;26.73;;;3.63;;
5569;SDS011;2808;51.240;6.794;2023-11-19T13:33:42;16.70;;;3.33;;
5569;SDS011;2808;51.240;6.794;2023-11-19T13:36:11;20.67;;;3.47;;
5569;SDS011;2808;51.240;6.794;2023-11-19T13:38:39;23.67;;;5.07;;
5569;SDS011;2808;51.240;6.794;2023-11-19T13:41:09;24.10;;;4.30;;
5569;SDS011;2808;51.240;6.794;2023-11-19T13:43:41;30.13;;;3.43;;
5569;SDS011;2808;51.240;6.794;2023-11-19T13:46:09;29.30;;;4.33;;
5569;SDS011;2808;51.240;6.794;2023-11-19T13:48:48;25.23;;;3.77;;
5569;SDS011;2808;51.240;6.794;2023-11-19T13:51:24;28.10;;;4.47;;
5569;SDS011;2808;51.240;6.794;2023-11-19T13:53:51;20.33;;;3.93;;
5569;SDS011;2808;51.240;6.794;2023-11-19T13:56:22;22.70;;;3.63;;
5569;SDS011;2808;51.240;6.794;2023-11-19T13:58:54;27.87;;;3.77;;
5569;SDS011;2808;51.240;6.794;2023-11-19T14:01:25;30.33;;;3.80;;
5569;SDS011;2808;51.240;6.794;2023-11-19T14:03:59;20.97;;;3.87;;
5569;SDS011;2808;51.240;6.794;2023-11-19T14:06:32;29.63;;;5.10;;
5569;SDS011;2808;51.240;6.794;2023-11-19T14:09:06;17.77;;;4.77;;
5569;SDS011;2808;51.240;6.794;2023-11-19T14:11:38;23.97;;;3.67;;
5569;SDS011;2808;51.240;6.794;2023-11-19T14:14:08;19.20;;;4.47;;
5569;SDS011;2808;51.240;6.794;2023-11-19T14:16:36;24.50;;;3.43;;
5569;SDS011;2808;51.240;6.794;2023-11-19T14:19:06;36.37;;;4.03;;
5569;SDS011;2808;51.240;6.794;2023-11-19T14:21:35;20.57;;;3.50;;
5569;SDS011;2808;51.240;6.794;2023-11-19T14:24:06;20.60;;;3.33;;
5569;SDS011;2808;51.240;6.794;2023-11-19T14:26:36;25.27;;;5.00;;
5569;SDS011;2808;51.240;6.794;2023-11-19T14:29:03;25.30;;;3.40;;
5569;SDS011;2808;51.240;6.794;2023-11-19T14:31:30;23.37;;;4.23;;
5569;SDS011;2808;51.240;6.794;2023-11-19T14:33:58;20.73;;;3.67;;
5569;SDS011;2808;51.240;6.794;2023-11-19T14:36:28;19.23;;;4.00;;
5569;SDS011;2808;51.240;6.794;2023-11-19T14:38:57;23.20;;;3.40;;
5569;SDS011;2808;51.240;6.794;2023-11-19T14:41:30;20.57;;;3.50;;
5569;SDS011;2808;51.240;6.794;2023-11-19T14:43:58;29.10;;;3.87;;
5569;SDS011;2808;51.240;6.794;2023-11-19T14:46:26;23.67;;;4.50;;
5569;SDS011;2808;51.240;6.794;2023-11-19T14:48:54;32.20;;;4.20;;
5569;SDS011;2808;51.240;6.794;2023-11-19T14:51:25;31.33;;;4.00;;
5569;SDS011;2808;51.240;6.794;2023-11-19T14:53:53;28.03;;;4.60;;
5569;SDS011;2808;51.240;6.794;2023-11-19T14:56:22;29.60;;;4.97;;
5569;SDS011;2808;51.240;6.794;2023-11-19T14:58:50;18.10;;;3.90;;
5569;SDS011;2808;51.240;6.794;2023-11-19T15:01:22;34.67;;;3.90;;
5569;SDS011;2808;51.240;6.794;2023-11-19T15:04:01;26.60;;;3.83;;
5569;SDS011;2808;51.240;6.794;2023-11-19T15:06:38;28.57;;;4.53;;
5569;SDS011;2808;51.240;6.794;2023-11-19T15:09:08;24.43;;;4.20;;
5569;SDS011;2808;51.240;6.794;2023-11-19T15:11:44;20.33;;;3.30;;
5569;SDS011;2808;51.240;6.794;2023-11-19T15:14:14;30.17;;;4.33;;
5569;SDS011;2808;51.240;6.794;2023-11-19T15:16:44;23.30;;;4.13;;
5569;SDS011;2808;51.240;6.794;2023-11-19T15:19:18;23.60;;;3.70;;
5569;SDS011;2808;51.240;6.794;2023-11-19T15:21:58;23.70;;;5.20;;
5569;SDS011;2808;51.240;6.794;2023-11-19T15:24:30;27.53;;;4.43;;
5569;SDS011;2808;51.240;6.794;2023-11-19T15:27:00;26.33;;;4.20;;
5569;SDS011;2808;51.240;6.794;2023-11-19T15:29:29;20.50;;;3.20;;
5569;SDS011;2808;51.240;6.794;2023-11-19T15:31:59;25.23;;;3.60;;
5569;SDS011;2808;51.240;6.794;2023-11-19T15:34:28;24.77;;;4.17;;
5569;SDS011;2808;51.240;6.794;2023-11-19T15:36:56;16.77;;;3.50;;
5569;SDS011;2808;51.240;6.794;2023-11-19T15:39:29;20.37;;;3.80;;
5569;SDS011;2808;51.240;6.794;2023-11-19T15:42:04;28.67;;;4.40;;
5569;SDS011;2808;51.240;6.794;2023-11-19T15:44:33;23.53;;;4.77;;
5569;SDS011;2808;51.240;6.794;2023-11-19T15:47:01;27.77;;;3.83;;
5569;SDS011;2808;51.240;6.794;2023-11-19T15:49:29;19.00;;;4.00;;
5569;SDS011;2808;51.240;6.794;2023-11-19T15:52:03;28.00;;;4.67;;
5569;SDS011;2808;51.240;6.794;2023-11-19T15:54:39;27.27;;;3.33;;
5569;SDS011;2808;51.240;6.794;2023-11-19T15:57:17;22.27;;;4.40;;
5569;SDS011;2808;51.240;6.794;2023-11-19T15:59:46;24.33;;;4.30;;
5569;SDS011;2808;51.240;6.794;2023-11-19T16:02:16;24.57;;;3.93;;
5569;SDS011;2808;51.240;6.794;2023-11-19T16:04:46;22.97;;;3.93;;
5569;SDS011;2808;51.240;6.794;2023-11-19T16:07:15;24.60;;;3.90;;
5569;SDS011;2808;51.240;6.794;2023-11-19T16:09:45;20.80;;;3.60;;
5569;SDS011;2808;51.240;6.794;2023-11-19T16:12:18;18.87;;;3.20;;
5569;SDS011;2808;51.240;6.794;2023-11-19T16:14:48;22.57;;;4.77;;
5569;SDS011;2808;51.240;6.794;2023-11-19T16:17:17;20.87;;;3.93;;
5569;SDS011;2808;51.240;6.794;2023-11-19T16:19:48;26.20;;;4.73;;